Time;durP1;ratioP1;P1;durP2;ratioP2;P2;SDS_P1;SDS_P2;PMS_P1;PMS_P2;Temp;Humidity;BMP_temperature;BMP_pressure;BME280_temperature;BME280_humidity;BME280_pressure;Samples;Min_cycle;Max_cycle;Signal;HPM_P1;HPM_P2
2023/05/19 00:01:46;;;;;;;3.67;2.20;;;14.00;49.20;;;;;;5029167;28;20403;-47
2023/05/19 00:04:16;;;;;;;3.22;2.65;;;13.90;48.90;;;;;;5028032;28;20671;-47
2023/05/19 00:06:49;;;;;;;;;;;13.90;49.50;;;;;;5030678;28;20033;-50
2023/05/19 00:09:16;;;;;;;3.63;2.25;;;13.90;49.00;;;;;;5029304;28;20031;-46
2023/05/19 00:11:43;;;;;;;3.70;2.72;;;13.70;48.80;;;;;;5028247;28;20049;-49
2023/05/19 00:14:10;;;;;;;4.75;3.17;;;13.60;49.20;;;;;;5027064;28;20048;-49
2023/05/19 00:16:37;;;;;;;2.42;2.22;;;13.60;49.50;;;;;;5029602;28;20129;-47
2023/05/19 00:19:08;;;;;;;2.80;2.60;;;13.50;49.50;;;;;;5029079;28;20100;-47
2023/05/19 00:21:37;;;;;;;3.50;3.15;;;13.50;49.70;;;;;;5009819;28;20080;-48
2023/05/19 00:24:05;;;;;;;4.88;2.80;;;13.40;49.80;;;;;;5027790;28;20049;-48
2023/05/19 00:26:32;;;;;;;4.68;3.22;;;13.30;49.90;;;;;;5028954;28;20061;-48
2023/05/19 00:29:06;;;;;;;4.90;2.10;;;13.30;50.10;;;;;;5011310;28;20562;-47
2023/05/19 00:31:33;;;;;;;4.03;2.83;;;13.20;50.20;;;;;;5028230;28;20056;-50
2023/05/19 00:34:22;;;;;;;2.67;2.30;;;13.10;50.30;;;;;;5007573;28;20050;-48
2023/05/19 00:36:54;;;;;;;2.47;2.10;;;13.10;50.30;;;;;;5020461;28;20041;-49
2023/05/19 00:39:33;;;;;;;3.80;2.05;;;13.00;50.30;;;;;;5011004;28;20424;-46
2023/05/19 00:42:04;;;;;;;2.97;2.67;;;13.00;50.40;;;;;;5011248;28;20071;-49
2023/05/19 00:44:38;;;;;;;6.85;3.30;;;12.90;50.40;;;;;;5028171;28;20229;-47
2023/05/19 00:47:05;;;;;;;3.10;2.80;;;12.90;50.70;;;;;;5027186;28;20050;-50
2023/05/19 00:49:32;;;;;;;2.78;2.35;;;12.80;50.70;;;;;;5005942;28;20050;-48
2023/05/19 00:52:00;;;;;;;2.85;2.63;;;12.80;50.80;;;;;;5029327;28;20045;-49
2023/05/19 00:54:30;;;;;;;5.05;2.70;;;12.70;50.90;;;;;;5027203;28;20045;-47
2023/05/19 00:56:59;;;;;;;4.00;3.22;;;12.70;51.00;;;;;;5029850;28;20045;-47
2023/05/19 00:59:28;;;;;;;2.90;2.63;;;12.60;51.00;;;;;;5028822;28;20052;-49
2023/05/19 01:01:55;;;;;;;6.03;2.70;;;12.60;51.20;;;;;;5012158;28;20136;-48
2023/05/19 01:04:26;;;;;;;3.67;2.50;;;12.50;51.30;;;;;;5026972;28;20049;-46
2023/05/19 01:06:55;;;;;;;3.58;2.80;;;12.50;51.30;;;;;;5010867;28;20053;-47
2023/05/19 01:09:22;;;;;;;3.20;2.58;;;12.40;51.30;;;;;;5010880;28;20099;-48
2023/05/19 01:11:49;;;;;;;3.67;2.30;;;12.40;51.50;;;;;;5010695;28;20046;-49
2023/05/19 01:14:19;;;;;;;4.85;2.80;;;12.30;51.50;;;;;;5010531;28;20536;-47
2023/05/19 01:16:57;;;;;;;2.53;2.33;;;12.30;51.60;;;;;;5011313;28;20144;-50
2023/05/19 01:19:52;;;;;;;2.90;2.60;;;12.20;52.00;;;;;;5010536;28;20509;-48
2023/05/19 01:22:31;;;;;;;3.90;2.33;;;12.20;52.60;;;;;;5028872;28;20052;-48
2023/05/19 01:25:20;;;;;;;2.38;2.22;;;12.20;52.20;;;;;;5027110;28;20034;-47
2023/05/19 01:28:09;;;;;;;2.72;2.30;;;12.10;51.80;;;;;;5029034;28;20723;-50
2023/05/19 01:30:40;;;;;;;3.53;2.10;;;11.90;52.60;;;;;;5028236;28;20042;-46
2023/05/19 01:33:15;;;;;;;3.38;2.70;;;12.00;52.10;;;;;;5026156;28;20242;-49
2023/05/19 01:35:46;;;;;;;2.88;2.67;;;12.00;52.00;;;;;;5010609;28;20053;-49
2023/05/19 01:38:19;;;;;;;2.75;2.55;;;11.90;51.80;;;;;;5011402;28;20140;-48
2023/05/19 01:40:48;;;;;;;2.78;2.58;;;11.90;52.10;;;;;;5010429;28;20417;-48
2023/05/19 01:43:24;;;;;;;4.32;2.95;;;11.80;52.00;;;;;;5009363;28;20049;-48
2023/05/19 01:45:52;;;;;;;3.38;3.00;;;11.80;52.30;;;;;;5026755;28;20047;-46
2023/05/19 01:48:23;;;;;;;3.65;2.92;;;11.80;52.20;;;;;;5011627;28;20053;-47
2023/05/19 01:50:50;;;;;;;3.47;2.80;;;11.70;52.20;;;;;;5030576;28;20115;-47
2023/05/19 01:53:23;;;;;;;2.97;2.70;;;11.80;52.30;;;;;;5030444;28;20057;-48
2023/05/19 01:55:55;;;;;;;2.83;2.58;;;11.70;52.30;;;;;;5013306;28;20462;-47
2023/05/19 01:58:36;;;;;;;;;;;11.70;52.30;;;;;;5032243;28;20084;-47
2023/05/19 02:01:21;;;;;;;3.05;2.38;;;11.70;52.30;;;;;;5016240;28;19928;-46
2023/05/19 02:04:20;;;;;;;3.28;2.63;;;11.60;52.30;;;;;;5030826;28;21511;-49
2023/05/19 02:07:00;;;;;;;3.95;2.88;;;11.60;53.20;;;;;;5028907;28;20049;-47
2023/05/19 02:09:54;;;;;;;3.33;2.40;;;11.50;52.10;;;;;;5014360;28;20600;-48
2023/05/19 02:12:30;;;;;;;3.00;2.70;;;11.50;52.60;;;;;;5031712;28;20112;-47
2023/05/19 02:15:19;;;;;;;4.10;2.47;;;11.50;52.70;;;;;;5030733;28;20072;-49
2023/05/19 02:17:53;;;;;;;4.88;3.30;;;11.50;53.20;;;;;;5013904;28;20565;-48
2023/05/19 02:20:21;;;;;;;3.30;3.00;;;11.40;52.70;;;;;;5031503;28;20494;-48
2023/05/19 02:22:51;;;;;;;4.82;3.28;;;11.40;52.80;;;;;;5030223;28;20049;-46
2023/05/19 02:25:22;;;;;;;4.53;3.63;;;11.40;53.60;;;;;;5029798;28;20124;-51
2023/05/19 02:27:54;;;;;;;3.00;2.70;;;11.40;53.20;;;;;;5031528;28;20038;-49
2023/05/19 02:30:25;;;;;;;;;;;11.30;53.10;;;;;;5031760;28;20041;-47
2023/05/19 02:32:54;;;;;;;3.47;2.53;;;11.40;53.20;;;;;;5029794;28;20389;-49
2023/05/19 02:35:21;;;;;;;4.57;4.10;;;11.30;52.40;;;;;;5031064;28;20064;-47
2023/05/19 02:37:50;;;;;;;4.18;3.00;;;11.30;53.30;;;;;;4997484;28;20057;-48
2023/05/19 02:40:21;;;;;;;3.53;3.22;;;11.30;53.80;;;;;;5013143;28;20092;-49
2023/05/19 02:42:48;;;;;;;3.92;2.70;;;11.30;53.30;;;;;;5030408;28;20045;-49
2023/05/19 02:45:20;;;;;;;3.35;2.97;;;11.20;53.10;;;;;;5029397;28;20111;-51
2023/05/19 02:47:56;;;;;;;4.07;3.00;;;11.10;53.10;;;;;;5013424;28;20080;-47
2023/05/19 02:50:24;;;;;;;3.22;2.92;;;11.20;53.20;;;;;;5012710;28;20514;-48
2023/05/19 02:52:52;;;;;;;5.10;3.20;;;11.10;53.10;;;;;;5029732;28;20065;-46
2023/05/19 02:55:26;;;;;;;3.35;3.00;;;11.10;53.20;;;;;;5010157;28;20042;-48
2023/05/19 02:57:59;;;;;;;6.30;3.53;;;11.10;53.20;;;;;;5012643;28;20101;-48
2023/05/19 03:00:26;;;;;;;3.40;3.10;;;11.10;53.30;;;;;;5028269;28;20076;-47
2023/05/19 03:02:54;;;;;;;3.83;3.15;;;11.00;53.30;;;;;;5013009;28;20406;-50
2023/05/19 03:05:23;;;;;;;5.05;3.08;;;11.00;53.30;;;;;;5009431;28;20084;-47
2023/05/19 03:07:53;;;;;;;3.72;3.42;;;10.90;53.40;;;;;;5021843;28;20049;-46
2023/05/19 03:10:22;;;;;;;3.47;3.17;;;10.90;53.30;;;;;;5008871;28;20164;-49
2023/05/19 03:12:49;;;;;;;5.85;3.33;;;10.90;53.40;;;;;;5029169;28;20069;-46
2023/05/19 03:15:17;;;;;;;4.35;3.28;;;10.90;53.50;;;;;;5012587;28;20088;-48
2023/05/19 03:17:44;;;;;;;4.32;3.50;;;10.90;53.50;;;;;;5010070;28;20099;-47
2023/05/19 03:20:15;;;;;;;4.40;3.33;;;10.80;53.60;;;;;;5026018;28;20489;-49
2023/05/19 03:22:44;;;;;;;3.55;3.03;;;10.80;53.60;;;;;;5012268;28;20037;-48
2023/05/19 03:25:12;;;;;;;5.95;3.22;;;10.80;53.60;;;;;;5011904;28;20049;-50
2023/05/19 03:27:39;;;;;;;4.00;3.33;;;10.70;53.70;;;;;;5013270;28;20048;-49
2023/05/19 03:30:06;;;;;;;3.47;3.10;;;10.70;53.70;;;;;;5030337;28;20042;-47
2023/05/19 03:32:40;;;;;;;3.22;2.92;;;10.70;53.80;;;;;;5012356;28;20041;-47
2023/05/19 03:35:11;;;;;;;3.20;2.90;;;10.60;53.70;;;;;;5029673;28;20084;-46
2023/05/19 03:37:42;;;;;;;4.30;3.17;;;10.60;53.70;;;;;;5030935;28;20072;-49
2023/05/19 03:40:10;;;;;;;3.65;3.35;;;10.60;53.60;;;;;;5012509;28;20315;-45
2023/05/19 03:42:40;;;;;;;7.22;3.30;;;10.60;53.70;;;;;;5010725;28;20481;-47
2023/05/19 03:45:09;;;;;;;3.97;3.08;;;10.50;53.80;;;;;;5012103;28;20045;-47
2023/05/19 03:47:42;;;;;;;3.83;3.13;;;10.50;54.00;;;;;;5013181;28;20041;-47
2023/05/19 03:50:23;;;;;;;4.40;3.50;;;10.50;54.10;;;;;;5012362;28;20480;-47
2023/05/19 03:52:59;;;;;;;6.13;3.08;;;10.50;54.10;;;;;;5006652;28;20045;-48
2023/05/19 03:55:28;;;;;;;4.05;3.42;;;10.40;54.10;;;;;;5014704;28;20137;-49
2023/05/19 03:57:55;;;;;;;4.47;3.60;;;10.40;54.20;;;;;;5029080;28;20127;-50
2023/05/19 04:00:24;;;;;;;4.25;3.55;;;10.40;54.40;;;;;;5012143;28;20041;-48
2023/05/19 04:02:53;;;;;;;3.72;3.42;;;10.30;54.40;;;;;;5011802;28;20076;-47
2023/05/19 04:05:23;;;;;;;5.97;3.95;;;10.40;54.50;;;;;;5012131;28;20041;-48
2023/05/19 04:07:49;;;;;;;5.30;3.25;;;10.40;54.60;;;;;;5011996;28;20053;-49
2023/05/19 04:10:17;;;;;;;4.68;3.53;;;10.40;54.60;;;;;;5029614;28;20073;-50
2023/05/19 04:12:46;;;;;;;4.68;3.33;;;10.40;54.80;;;;;;5025447;28;20104;-50
2023/05/19 04:15:14;;;;;;;3.88;3.25;;;10.40;54.90;;;;;;5011990;28;20571;-48
2023/05/19 04:17:41;;;;;;;6.05;3.75;;;10.40;55.00;;;;;;5012633;28;20049;-50
2023/05/19 04:20:10;;;;;;;4.43;3.72;;;10.40;55.00;;;;;;5007806;28;20045;-51
2023/05/19 04:22:37;;;;;;;4.38;3.97;;;10.40;55.10;;;;;;5010943;28;20573;-46
2023/05/19 04:25:04;;;;;;;3.85;3.38;;;10.40;55.20;;;;;;5028523;28;20128;-48
2023/05/19 04:27:35;;;;;;;5.75;3.30;;;10.40;55.30;;;;;;5021480;28;20091;-50
2023/05/19 04:30:05;;;;;;;5.80;4.22;;;10.40;55.40;;;;;;5017133;28;20045;-51
2023/05/19 04:32:32;;;;;;;4.68;4.18;;;10.50;55.50;;;;;;5007952;28;20038;-47
2023/05/19 04:34:59;;;;;;;7.93;4.50;;;10.50;55.70;;;;;;5003642;28;20049;-47
2023/05/19 04:37:28;;;;;;;6.57;3.72;;;10.50;55.90;;;;;;5009806;28;20097;-46
2023/05/19 04:39:55;;;;;;;5.80;4.20;;;10.50;56.10;;;;;;5019621;28;20107;-45
2023/05/19 04:42:29;;;;;;;4.22;3.83;;;10.50;56.20;;;;;;5011464;28;20069;-49
2023/05/19 04:44:58;;;;;;;5.95;3.53;;;10.60;56.30;;;;;;5025580;28;20049;-48
2023/05/19 04:47:35;;;;;;;4.55;3.88;;;10.60;56.40;;;;;;5011342;28;20046;-48
2023/05/19 04:50:06;;;;;;;5.78;4.13;;;10.60;56.50;;;;;;5011250;28;20041;-47
2023/05/19 04:52:35;;;;;;;5.05;4.10;;;10.70;56.60;;;;;;5010436;28;20126;-50
2023/05/19 04:55:06;;;;;;;5.43;4.70;;;10.70;56.80;;;;;;5007375;28;20060;-46
2023/05/19 04:57:36;;;;;;;6.55;4.65;;;10.80;57.00;;;;;;5041526;23;20081;-46
2023/05/19 05:00:13;;;;;;;7.22;4.72;;;10.80;57.10;;;;;;5026059;28;20040;-48
2023/05/19 05:02:57;;;;;;;5.47;4.57;;;10.90;57.70;;;;;;5048059;28;20060;-47
2023/05/19 05:05:26;;;;;;;5.63;5.13;;;10.90;57.50;;;;;;5067346;28;20491;-48
2023/05/19 05:07:52;;;;;;;5.70;4.72;;;11.00;57.90;;;;;;5054014;28;20041;-48
2023/05/19 05:10:21;;;;;;;6.10;4.95;;;11.10;58.10;;;;;;5022560;28;20501;-47
2023/05/19 05:12:50;;;;;;;7.88;5.70;;;11.10;58.20;;;;;;5034002;28;20044;-52
2023/05/19 05:15:21;;;;;;;7.68;5.43;;;11.20;58.50;;;;;;5030465;28;20049;-49
2023/05/19 05:17:49;;;;;;;8.05;5.90;;;11.30;58.60;;;;;;5022885;28;20040;-48
2023/05/19 05:20:19;;;;;;;8.63;6.10;;;11.30;58.50;;;;;;5031022;28;20444;-47
2023/05/19 05:22:46;;;;;;;9.20;5.65;;;11.40;58.70;;;;;;5023243;28;20045;-47
2023/05/19 05:25:15;;;;;;;7.72;5.65;;;11.50;58.90;;;;;;5027895;28;20099;-52
2023/05/19 05:27:42;;;;;;;8.32;5.55;;;11.60;59.10;;;;;;5037856;28;20520;-51
2023/05/19 05:30:10;;;;;;;8.48;6.60;;;11.60;59.00;;;;;;5052788;28;20036;-50
2023/05/19 05:32:37;;;;;;;10.55;6.55;;;11.70;59.20;;;;;;5025377;28;20033;-48
2023/05/19 05:35:14;;;;;;;12.30;6.30;;;11.80;58.90;;;;;;5038423;28;20390;-47
2023/05/19 05:37:41;;;;;;;9.70;6.03;;;11.80;58.70;;;;;;5025632;28;20731;-46
2023/05/19 05:40:08;;;;;;;9.95;6.32;;;11.90;58.70;;;;;;5051929;28;20048;-51
2023/05/19 05:42:35;;;;;;;12.38;7.38;;;12.00;58.90;;;;;;5052347;28;20110;-48
2023/05/19 05:45:05;;;;;;;12.05;6.68;;;12.10;59.00;;;;;;5052055;28;20120;-51
2023/05/19 05:47:32;;;;;;;7.57;6.60;;;12.20;59.30;;;;;;5027020;28;20037;-48
2023/05/19 05:50:13;;;;;;;9.05;6.18;;;12.20;58.80;;;;;;5029177;28;20041;-48
2023/05/19 05:52:40;;;;;;;;;;;12.40;58.80;;;;;;5027461;28;20506;-48
2023/05/19 05:55:08;;;;;;;10.68;5.78;;;12.50;58.40;;;;;;5024889;28;20007;-49
2023/05/19 05:57:40;;;;;;;9.20;6.85;;;12.50;57.50;;;;;;5038686;28;20048;-51
2023/05/19 06:00:14;;;;;;;7.47;5.95;;;12.60;57.70;;;;;;5023872;28;20509;-47
2023/05/19 06:02:53;;;;;;;8.82;6.88;;;12.70;57.70;;;;;;5056222;28;20497;-53
2023/05/19 06:05:25;;;;;;;11.18;6.45;;;12.70;57.80;;;;;;5032949;28;20132;-52
2023/05/19 06:07:56;;;;;;;11.50;7.05;;;12.80;57.70;;;;;;5031599;28;20510;-50
2023/05/19 06:10:25;;;;;;;8.52;6.70;;;12.80;57.60;;;;;;5029559;28;20064;-56
2023/05/19 06:12:53;;;;;;;9.23;6.57;;;12.90;57.40;;;;;;5043800;28;20052;-51
2023/05/19 06:15:21;;;;;;;8.15;6.05;;;13.00;57.40;;;;;;5031713;28;20096;-51
2023/05/19 06:17:53;;;;;;;7.47;6.15;;;13.00;57.30;;;;;;5052503;28;20048;-51
2023/05/19 06:20:25;;;;;;;7.43;5.72;;;13.10;57.30;;;;;;5040309;28;20048;-54
2023/05/19 06:22:53;;;;;;;9.50;6.07;;;13.10;57.20;;;;;;5050771;28;20049;-50
2023/05/19 06:25:24;;;;;;;9.45;7.03;;;13.20;57.10;;;;;;5027651;28;20117;-52
2023/05/19 06:27:51;;;;;;;11.30;6.30;;;13.20;57.00;;;;;;5032821;28;20412;-53
2023/05/19 06:30:19;;;;;;;13.85;5.80;;;13.30;57.00;;;;;;5049293;28;20136;-55
2023/05/19 06:32:58;;;;;;;15.15;6.60;;;13.30;56.90;;;;;;5039040;28;20874;-55
2023/05/19 06:35:27;;;;;;;11.07;6.03;;;13.40;56.80;;;;;;5023404;28;20053;-54
2023/05/19 06:37:55;;;;;;;9.50;5.53;;;13.40;56.80;;;;;;5048721;28;20051;-54
2023/05/19 06:40:22;;;;;;;9.73;5.93;;;13.50;56.60;;;;;;5025173;28;20049;-52
2023/05/19 06:42:52;;;;;;;13.55;6.32;;;13.50;56.60;;;;;;5032298;28;20045;-54
2023/05/19 06:45:27;;;;;;;10.23;6.22;;;13.60;56.40;;;;;;5054818;28;20045;-50
2023/05/19 06:47:57;;;;;;;10.02;6.40;;;13.60;56.20;;;;;;5031805;28;20106;-53
2023/05/19 06:50:25;;;;;;;10.85;6.30;;;13.70;56.10;;;;;;5047923;28;20116;-52
2023/05/19 06:52:53;;;;;;;8.07;5.63;;;13.70;56.20;;;;;;5041883;28;20042;-56
2023/05/19 06:55:19;;;;;;;8.85;5.28;;;13.80;56.20;;;;;;5045308;28;20319;-52
2023/05/19 06:57:48;;;;;;;14.40;5.75;;;13.90;56.10;;;;;;5027322;28;20501;-55
2023/05/19 07:00:17;;;;;;;6.50;5.75;;;13.90;55.80;;;;;;5031828;28;20051;-55
2023/05/19 07:02:49;;;;;;;12.40;6.18;;;14.00;55.80;;;;;;5025783;28;20055;-54
2023/05/19 07:05:16;;;;;;;6.90;5.60;;;14.10;55.90;;;;;;5030526;28;20060;-54
2023/05/19 07:07:47;;;;;;;6.90;5.53;;;14.10;55.60;;;;;;5024379;28;20083;-54
2023/05/19 07:10:20;;;;;;;9.40;5.40;;;14.20;55.50;;;;;;5043346;28;20533;-55
2023/05/19 07:12:47;;;;;;;8.20;6.55;;;14.30;55.60;;;;;;5025872;28;20041;-54
2023/05/19 07:15:16;;;;;;;7.85;5.03;;;14.30;55.60;;;;;;5041357;28;20057;-53
2023/05/19 07:17:43;;;;;;;9.20;6.63;;;14.40;55.20;;;;;;5031027;28;20048;-56
2023/05/19 07:20:10;;;;;;;7.35;5.05;;;14.40;55.30;;;;;;5047047;28;20045;-56
2023/05/19 07:22:40;;;;;;;8.32;4.75;;;14.50;55.30;;;;;;5042344;28;20057;-56
2023/05/19 07:25:07;;;;;;;8.70;4.85;;;14.50;55.10;;;;;;5022275;28;20049;-55
2023/05/19 07:27:34;;;;;;;9.48;5.38;;;14.60;55.20;;;;;;5029034;28;20493;-56
2023/05/19 07:30:00;;;;;;;6.90;5.25;;;14.70;55.00;;;;;;5044089;28;20041;-55
2023/05/19 07:32:27;;;;;;;10.05;5.70;;;14.70;54.90;;;;;;5047813;28;20051;-55
2023/05/19 07:34:53;;;;;;;6.30;5.18;;;14.80;55.50;;;;;;5047370;28;20041;-55
2023/05/19 07:37:20;;;;;;;7.75;5.35;;;14.80;55.00;;;;;;5048360;28;20041;-56
2023/05/19 07:39:47;;;;;;;9.10;4.90;;;14.90;54.80;;;;;;5029905;28;20052;-54
2023/05/19 07:42:14;;;;;;;7.20;4.35;;;14.90;54.90;;;;;;5047420;28;20033;-55
2023/05/19 07:44:40;;;;;;;12.88;5.07;;;15.00;54.80;;;;;;5045100;28;20037;-55
2023/05/19 07:47:07;;;;;;;9.52;4.95;;;15.00;54.30;;;;;;5047802;28;20091;-55
2023/05/19 07:49:34;;;;;;;9.88;5.45;;;15.10;54.40;;;;;;5047944;28;20064;-54
2023/05/19 07:52:00;;;;;;;8.55;5.22;;;15.20;54.30;;;;;;5046330;28;20041;-56
2023/05/19 07:54:27;;;;;;;7.45;4.78;;;15.20;54.10;;;;;;5045396;28;20040;-53
2023/05/19 07:56:54;;;;;;;7.32;5.18;;;15.30;54.30;;;;;;5046727;28;20498;-56
2023/05/19 07:59:20;;;;;;;7.38;5.15;;;15.40;53.90;;;;;;5050127;28;20037;-56
2023/05/19 08:01:47;;;;;;;6.47;4.45;;;15.40;53.60;;;;;;5048577;28;20133;-53
2023/05/19 08:04:14;;;;;;;6.93;4.18;;;15.50;53.70;;;;;;5046837;28;20116;-56
2023/05/19 08:06:43;;;;;;;12.10;4.68;;;15.60;53.70;;;;;;5048496;28;20852;-55
2023/05/19 08:09:10;;;;;;;7.55;4.05;;;15.60;53.40;;;;;;5048804;28;20115;-55
2023/05/19 08:11:37;;;;;;;8.57;4.43;;;15.70;53.40;;;;;;5047358;28;20151;-55
2023/05/19 08:14:04;;;;;;;8.18;4.15;;;15.70;53.10;;;;;;5046911;28;20605;-52
2023/05/19 08:16:31;;;;;;;7.28;4.30;;;15.80;53.00;;;;;;5031947;28;20144;-55
2023/05/19 08:19:01;;;;;;;17.17;4.82;;;15.90;53.20;;;;;;5048999;28;20390;-54
2023/05/19 08:21:27;;;;;;;6.13;3.88;;;15.90;53.30;;;;;;5048687;28;20041;-56
2023/05/19 08:23:55;;;;;;;8.07;3.72;;;16.00;52.60;;;;;;5048090;28;20048;-54
2023/05/19 08:26:22;;;;;;;8.50;3.90;;;16.10;52.50;;;;;;5047701;28;20033;-55
2023/05/19 08:28:49;;;;;;;5.07;3.95;;;16.10;52.10;;;;;;5049773;28;20033;-56
2023/05/19 08:31:17;;;;;;;8.45;3.80;;;16.20;51.90;;;;;;5047173;28;20045;-55
2023/05/19 08:33:44;;;;;;;8.15;3.83;;;16.30;51.90;;;;;;5045942;28;20116;-56
2023/05/19 08:36:11;;;;;;;5.57;3.42;;;16.30;51.70;;;;;;5047071;28;20677;-52
2023/05/19 08:38:37;;;;;;;8.65;3.63;;;16.40;51.10;;;;;;5049001;28;20091;-55
2023/05/19 08:41:04;;;;;;;5.82;3.50;;;16.50;51.00;;;;;;5048214;28;20124;-52
2023/05/19 08:43:31;;;;;;;5.40;3.50;;;16.50;50.30;;;;;;5048075;28;20129;-56
2023/05/19 08:45:59;;;;;;;10.55;4.35;;;16.60;50.70;;;;;;5045398;28;20045;-55
2023/05/19 08:48:29;;;;;;;8.70;3.85;;;16.70;51.50;;;;;;5048098;28;20051;-53
2023/05/19 08:51:11;;;;;;;7.10;3.85;;;16.70;51.20;;;;;;5051477;28;20032;-54
2023/05/19 08:53:42;;;;;;;5.78;3.10;;;16.90;51.30;;;;;;5039250;28;20119;-55
2023/05/19 08:56:20;;;;;;;5.57;3.90;;;16.90;50.80;;;;;;5050089;28;20041;-56
2023/05/19 08:58:49;;;;;;;6.38;3.50;;;17.00;50.70;;;;;;5048857;28;20045;-55
2023/05/19 09:01:18;;;;;;;5.50;2.97;;;17.10;50.00;;;;;;5051752;28;20506;-56
2023/05/19 09:03:48;;;;;;;6.88;2.05;;;17.20;50.20;;;;;;5052518;28;20036;-56
2023/05/19 09:06:15;;;;;;;3.40;1.90;;;17.30;49.30;;;;;;5051053;28;20037;-56
2023/05/19 09:08:42;;;;;;;3.40;1.33;;;17.40;48.20;;;;;;5052473;28;20079;-56
2023/05/19 09:11:09;;;;;;;4.18;1.92;;;17.50;48.30;;;;;;5051864;28;20120;-55
2023/05/19 09:13:36;;;;;;;3.55;1.60;;;17.70;48.20;;;;;;5052333;28;20125;-54
2023/05/19 09:16:03;;;;;;;5.65;2.50;;;17.80;47.80;;;;;;5049342;28;20077;-56
2023/05/19 09:18:30;;;;;;;7.93;1.90;;;17.90;46.90;;;;;;5035268;28;20072;-56
2023/05/19 09:20:59;;;;;;;5.60;2.45;;;18.00;46.60;;;;;;5051813;28;20041;-52
2023/05/19 09:23:28;;;;;;;4.03;2.03;;;18.10;45.50;;;;;;5051113;28;20094;-56
2023/05/19 09:25:56;;;;;;;4.03;1.30;;;18.10;44.80;;;;;;5050796;28;20765;-55
2023/05/19 09:28:26;;;;;;;2.45;1.52;;;18.20;44.70;;;;;;5052208;28;20083;-55
2023/05/19 09:31:10;;;;;;;3.10;1.60;;;18.30;44.50;;;;;;5048018;28;20068;-55
2023/05/19 09:33:38;;;;;;;3.63;1.50;;;18.30;44.40;;;;;;5047187;28;20052;-55
2023/05/19 09:36:07;;;;;;;3.28;1.48;;;18.30;44.00;;;;;;5051505;28;20041;-56
2023/05/19 09:38:35;;;;;;;3.25;1.70;;;18.40;44.20;;;;;;5052641;28;20045;-56
2023/05/19 09:41:02;;;;;;;4.20;1.33;;;18.40;43.30;;;;;;5044922;28;20068;-54
2023/05/19 09:43:31;;;;;;;3.30;1.52;;;18.50;42.80;;;;;;5028338;28;20135;-56
2023/05/19 09:46:06;;;;;;;7.80;2.03;;;18.50;43.20;;;;;;5051355;28;20037;-55
2023/05/19 09:48:35;;;;;;;3.25;1.30;;;18.50;43.20;;;;;;5051789;28;20091;-54
2023/05/19 09:51:03;;;;;;;5.43;1.63;;;18.60;43.20;;;;;;5050853;28;20490;-55
2023/05/19 09:53:31;;;;;;;2.50;1.50;;;18.60;42.50;;;;;;5049892;28;20141;-54
2023/05/19 09:56:00;;;;;;;3.45;1.20;;;18.60;42.60;;;;;;5051627;28;20115;-52
2023/05/19 09:58:35;;;;;;;2.47;1.42;;;18.70;42.70;;;;;;5049514;28;20085;-55
2023/05/19 10:01:03;;;;;;;4.72;1.42;;;18.70;42.50;;;;;;5049207;28;20118;-53
2023/05/19 10:03:36;;;;;;;3.05;1.10;;;18.80;42.80;;;;;;5049690;28;20106;-56
2023/05/19 10:06:10;;;;;;;3.15;1.15;;;18.80;42.20;;;;;;5050997;28;20519;-56
2023/05/19 10:08:41;;;;;;;1.25;0.95;;;18.80;42.90;;;;;;5033966;28;20095;-55
2023/05/19 10:11:10;;;;;;;7.05;1.67;;;18.90;42.50;;;;;;5049885;28;20154;-56
2023/05/19 10:13:43;;;;;;;4.53;2.42;;;18.90;42.30;;;;;;5048831;28;20705;-55
2023/05/19 10:16:12;;;;;;;3.42;1.35;;;19.00;41.90;;;;;;5052269;28;20049;-56
2023/05/19 10:18:40;;;;;;;3.13;1.48;;;19.00;41.60;;;;;;5052507;28;20068;-56
2023/05/19 10:21:07;;;;;;;6.32;1.27;;;19.10;41.60;;;;;;5050564;28;20048;-55
2023/05/19 10:23:34;;;;;;;4.78;1.20;;;19.10;42.00;;;;;;5051195;28;20043;-56
2023/05/19 10:26:11;;;;;;;2.47;1.30;;;19.20;41.90;;;;;;5050774;28;20041;-56
2023/05/19 10:28:41;;;;;;;3.58;1.50;;;19.20;42.10;;;;;;5045680;28;20121;-56
2023/05/19 10:31:16;;;;;;;7.43;2.38;;;19.30;42.30;;;;;;5051071;28;20570;-56
2023/05/19 10:34:17;;;;;;;2.65;1.35;;;19.30;41.20;;;;;;5050503;28;20119;-56
2023/05/19 10:36:48;;;;;;;1.52;1.30;;;19.40;41.30;;;;;;5050074;28;20041;-55
2023/05/19 10:39:26;;;;;;;6.35;1.38;;;19.40;41.20;;;;;;5017036;28;20403;-55
2023/05/19 10:42:35;;;;;;;2.85;1.10;;;19.50;40.40;;;;;;5028795;28;20048;-55
2023/05/19 10:45:20;;;;;;;4.13;1.70;;;19.60;41.30;;;;;;5024459;28;20049;-56
2023/05/19 10:47:53;;;;;;;4.55;1.65;;;19.60;40.10;;;;;;5050364;28;20200;-56
2023/05/19 10:50:22;;;;;;;4.35;1.50;;;19.60;40.50;;;;;;5050701;28;20405;-56
2023/05/19 10:52:56;;;;;;;2.53;1.30;;;19.70;41.40;;;;;;5050575;28;20444;-55
2023/05/19 10:55:52;;;;;;;5.28;1.50;;;19.70;40.60;;;;;;5051906;28;20083;-56
2023/05/19 10:58:43;;;;;;;3.75;1.50;;;19.80;40.80;;;;;;5050780;28;20086;-55
2023/05/19 11:01:31;;;;;;;5.47;2.03;;;19.90;40.50;;;;;;5050019;28;20440;-56
2023/05/19 11:04:14;;;;;;;1.98;1.40;;;19.90;40.20;;;;;;5050690;28;20049;-56
2023/05/19 11:06:50;;;;;;;3.28;1.58;;;20.00;40.50;;;;;;5027180;28;20508;-54
2023/05/19 11:09:18;;;;;;;3.13;1.58;;;20.10;40.30;;;;;;5046008;28;20469;-55
2023/05/19 11:11:54;;;;;;;3.03;1.67;;;20.20;41.00;;;;;;5030879;28;20033;-55
2023/05/19 11:14:25;;;;;;;4.38;1.67;;;20.20;40.20;;;;;;5034563;28;20044;-54
2023/05/19 11:16:55;;;;;;;4.07;1.70;;;20.30;39.50;;;;;;5049980;28;20059;-54
2023/05/19 11:19:34;;;;;;;3.08;1.48;;;20.40;39.30;;;;;;5047730;28;20660;-55
2023/05/19 11:22:11;;;;;;;4.28;1.52;;;20.50;39.70;;;;;;5038737;28;20184;-55
2023/05/19 11:24:48;;;;;;;3.65;1.58;;;20.50;40.70;;;;;;5046809;28;20049;-54
2023/05/19 11:27:32;;;;;;;3.20;1.70;;;20.60;40.50;;;;;;5049351;28;20128;-56
2023/05/19 11:30:08;;;;;;;4.68;1.92;;;20.70;40.50;;;;;;5046364;28;20069;-54
2023/05/19 11:32:38;;;;;;;4.07;1.75;;;20.70;40.60;;;;;;5046675;28;20037;-55
2023/05/19 11:35:06;;;;;;;4.53;2.40;;;20.80;41.30;;;;;;5048667;28;20037;-56
2023/05/19 11:37:36;;;;;;;2.75;1.50;;;20.90;40.70;;;;;;5046416;28;20789;-56
2023/05/19 11:40:07;;;;;;;6.00;1.70;;;21.00;40.30;;;;;;5045923;28;20045;-56
2023/05/19 11:42:35;;;;;;;4.65;2.13;;;21.10;39.60;;;;;;5041141;28;20045;-55
2023/05/19 11:45:03;;;;;;;7.63;1.75;;;21.10;39.20;;;;;;5045421;28;20147;-56
2023/05/19 11:47:32;;;;;;;2.67;1.42;;;21.20;40.40;;;;;;5048562;28;20233;-55
2023/05/19 11:50:18;;;;;;;3.08;2.00;;;21.30;39.50;;;;;;5048500;28;20049;-56
2023/05/19 11:52:48;;;;;;;7.28;2.60;;;21.40;39.30;;;;;;5052863;28;20131;-56
2023/05/19 11:55:21;;;;;;;3.05;1.98;;;21.50;39.20;;;;;;5051547;28;20413;-56
2023/05/19 11:57:57;;;;;;;5.53;2.13;;;21.50;39.40;;;;;;5045046;28;20036;-56
2023/05/19 12:00:38;;;;;;;5.30;1.98;;;21.50;38.70;;;;;;5046112;28;20037;-56
2023/05/19 12:03:06;;;;;;;2.20;1.50;;;21.60;39.10;;;;;;5048583;28;20589;-55
2023/05/19 12:05:36;;;;;;;3.17;1.70;;;21.60;39.30;;;;;;5049095;28;20041;-54
2023/05/19 12:08:07;;;;;;;4.03;1.50;;;21.70;38.00;;;;;;5049238;28;20464;-56
2023/05/19 12:10:34;;;;;;;7.60;2.00;;;21.70;38.80;;;;;;5048064;28;20124;-55
2023/05/19 12:13:02;;;;;;;3.85;1.90;;;21.80;38.40;;;;;;5046574;28;20069;-52
2023/05/19 12:15:30;;;;;;;3.95;2.08;;;21.80;37.90;;;;;;5047739;28;20041;-56
2023/05/19 12:18:00;;;;;;;2.97;2.45;;;21.80;37.80;;;;;;5048510;28;20041;-55
2023/05/19 12:20:34;;;;;;;3.50;1.77;;;21.80;37.50;;;;;;5048188;28;20389;-55
2023/05/19 12:23:01;;;;;;;3.67;1.75;;;21.80;38.20;;;;;;5048875;28;20092;-54
2023/05/19 12:25:29;;;;;;;3.42;2.17;;;21.90;38.00;;;;;;5046994;28;20504;-56
2023/05/19 12:28:01;;;;;;;6.40;1.88;;;21.90;38.20;;;;;;5045689;28;20060;-56
2023/05/19 12:30:29;;;;;;;2.28;1.52;;;21.90;37.00;;;;;;5047695;28;20095;-56
2023/05/19 12:32:56;;;;;;;8.35;2.13;;;22.00;37.60;;;;;;5048173;28;20115;-56
2023/05/19 12:35:28;;;;;;;3.92;1.90;;;22.00;37.60;;;;;;5047775;28;20489;-56
2023/05/19 12:37:55;;;;;;;3.80;1.60;;;22.10;36.90;;;;;;5049983;28;20045;-56
2023/05/19 12:40:23;;;;;;;3.78;1.90;;;22.10;36.80;;;;;;5047700;28;20044;-55
2023/05/19 12:42:57;;;;;;;7.63;1.98;;;22.20;37.50;;;;;;5048395;28;20112;-53
2023/05/19 12:45:26;;;;;;;2.75;1.75;;;22.20;37.70;;;;;;5043933;28;20059;-55
2023/05/19 12:47:53;;;;;;;6.80;1.80;;;22.30;36.70;;;;;;5041251;28;20033;-56
2023/05/19 12:50:20;;;;;;;3.85;2.25;;;22.50;36.80;;;;;;5041833;28;20603;-55
2023/05/19 12:52:51;;;;;;;2.83;1.98;;;22.50;36.70;;;;;;5045653;28;20045;-57
2023/05/19 12:55:19;;;;;;;4.32;1.95;;;22.70;36.80;;;;;;5047860;28;20469;-56
2023/05/19 12:57:55;;;;;;;4.75;1.67;;;22.70;36.10;;;;;;5045751;28;20053;-56
2023/05/19 13:00:26;;;;;;;3.65;2.03;;;22.90;36.90;;;;;;5042675;28;20041;-56
2023/05/19 13:03:08;;;;;;;3.55;1.60;;;23.00;36.40;;;;;;5043891;28;20557;-53
2023/05/19 13:05:37;;;;;;;3.78;1.98;;;23.20;35.50;;;;;;5027902;28;20128;-55
2023/05/19 13:08:12;;;;;;;2.58;1.40;;;23.40;36.20;;;;;;5048954;28;20124;-57